sensor_id;sensor_type;location;lat;lon;timestamp;pressure;altitude;pressure_sealevel;temperature;humidity
8294;BME280;4185;41.506;24.938;2023-03-21T00:02:16;93512.94;;;7.41;71.69
8294;BME280;4185;41.506;24.938;2023-03-21T00:04:43;93517.78;;;7.37;71.90
8294;BME280;4185;41.506;24.938;2023-03-21T00:07:11;93514.44;;;7.42;72.09
8294;BME280;4185;41.506;24.938;2023-03-21T00:09:39;93511.06;;;7.47;71.83
8294;BME280;4185;41.506;24.938;2023-03-21T00:12:06;93507.34;;;7.45;72.29
8294;BME280;4185;41.506;24.938;2023-03-21T00:14:34;93514.44;;;7.42;71.99
8294;BME280;4185;41.506;24.938;2023-03-21T00:17:02;93499.50;;;7.32;73.08
8294;BME280;4185;41.506;24.938;2023-03-21T00:19:29;93498.59;;;7.35;73.22
8294;BME280;4185;41.506;24.938;2023-03-21T00:21:56;93499.16;;;7.39;72.80
8294;BME280;4185;41.506;24.938;2023-03-21T00:24:23;93493.75;;;7.39;73.27
8294;BME280;4185;41.506;24.938;2023-03-21T00:26:51;93483.59;;;7.34;73.31
8294;BME280;4185;41.506;24.938;2023-03-21T00:29:18;93494.09;;;7.32;73.01
8294;BME280;4185;41.506;24.938;2023-03-21T00:31:45;93481.59;;;7.20;73.47
8294;BME280;4185;41.506;24.938;2023-03-21T00:34:12;93481.81;;;7.17;72.99
8294;BME280;4185;41.506;24.938;2023-03-21T00:36:39;93467.72;;;7.13;73.59
8294;BME280;4185;41.506;24.938;2023-03-21T00:39:06;93469.88;;;7.23;73.91
8294;BME280;4185;41.506;24.938;2023-03-21T00:41:33;93461.59;;;7.27;73.80
8294;BME280;4185;41.506;24.938;2023-03-21T00:44:01;93458.16;;;7.26;73.96
8294;BME280;4185;41.506;24.938;2023-03-21T00:46:28;93458.81;;;7.21;73.41
8294;BME280;4185;41.506;24.938;2023-03-21T00:48:55;93463.34;;;7.15;73.99
8294;BME280;4185;41.506;24.938;2023-03-21T00:51:22;93452.53;;;7.15;73.96
8294;BME280;4185;41.506;24.938;2023-03-21T00:53:53;93448.56;;;7.25;74.43
8294;BME280;4185;41.506;24.938;2023-03-21T00:56:20;93453.22;;;7.25;73.52
8294;BME280;4185;41.506;24.938;2023-03-21T00:58:47;93440.66;;;7.22;74.16
8294;BME280;4185;41.506;24.938;2023-03-21T01:01:17;93446.50;;;7.20;74.09
8294;BME280;4185;41.506;24.938;2023-03-21T01:03:44;93435.97;;;7.22;74.32
8294;BME280;4185;41.506;24.938;2023-03-21T01:06:12;93427.03;;;7.16;74.55
8294;BME280;4185;41.506;24.938;2023-03-21T01:08:44;93435.97;;;7.22;74.33
8294;BME280;4185;41.506;24.938;2023-03-21T01:11:13;93438.38;;;7.20;74.60
8294;BME280;4185;41.506;24.938;2023-03-21T01:13:41;93434.78;;;7.23;73.98
8294;BME280;4185;41.506;24.938;2023-03-21T01:16:09;93430.56;;;7.22;74.22
8294;BME280;4185;41.506;24.938;2023-03-21T01:18:39;93422.94;;;7.21;73.67
8294;BME280;4185;41.506;24.938;2023-03-21T01:21:08;93424.06;;;7.14;73.97
8294;BME280;4185;41.506;24.938;2023-03-21T01:23:36;93416.88;;;7.11;74.26
8294;BME280;4185;41.506;24.938;2023-03-21T01:26:03;93412.69;;;7.10;75.08
8294;BME280;4185;41.506;24.938;2023-03-21T01:28:30;93414.38;;;7.08;75.11
8294;BME280;4185;41.506;24.938;2023-03-21T01:30:59;93417.34;;;7.10;75.63
8294;BME280;4185;41.506;24.938;2023-03-21T01:33:26;93413.44;;;7.11;75.11
8294;BME280;4185;41.506;24.938;2023-03-21T01:35:55;93411.00;;;7.13;75.95
8294;BME280;4185;41.506;24.938;2023-03-21T01:38:21;93423.47;;;7.10;76.10
8294;BME280;4185;41.506;24.938;2023-03-21T01:40:49;93408.31;;;7.13;74.95
8294;BME280;4185;41.506;24.938;2023-03-21T01:43:28;93397.31;;;7.16;75.21
8294;BME280;4185;41.506;24.938;2023-03-21T01:46:19;93397.78;;;7.15;74.58
8294;BME280;4185;41.506;24.938;2023-03-21T01:48:50;93394.81;;;7.13;74.59
8294;BME280;4185;41.506;24.938;2023-03-21T01:51:21;93385.66;;;7.10;75.09
8294;BME280;4185;41.506;24.938;2023-03-21T01:53:50;93386.88;;;7.09;75.16
8294;BME280;4185;41.506;24.938;2023-03-21T01:56:22;93381.84;;;7.02;75.58
8294;BME280;4185;41.506;24.938;2023-03-21T01:58:51;93392.84;;;6.99;75.75
8294;BME280;4185;41.506;24.938;2023-03-21T02:01:21;93388.28;;;7.05;74.93
8294;BME280;4185;41.506;24.938;2023-03-21T02:03:49;93382.69;;;6.94;75.23
8294;BME280;4185;41.506;24.938;2023-03-21T02:06:24;93384.38;;;6.91;75.11
8294;BME280;4185;41.506;24.938;2023-03-21T02:08:59;93386.41;;;6.82;75.26
8294;BME280;4185;41.506;24.938;2023-03-21T02:11:26;93389.47;;;6.75;76.12
8294;BME280;4185;41.506;24.938;2023-03-21T02:13:54;93374.47;;;6.74;76.13
8294;BME280;4185;41.506;24.938;2023-03-21T02:16:28;93381.81;;;6.73;76.90
8294;BME280;4185;41.506;24.938;2023-03-21T02:19:04;93379.31;;;6.70;76.53
8294;BME280;4185;41.506;24.938;2023-03-21T02:27:55;93374.00;;;6.75;76.37
8294;BME280;4185;41.506;24.938;2023-03-21T02:30:37;93373.38;;;6.80;75.74
8294;BME280;4185;41.506;24.938;2023-03-21T02:33:40;93373.47;;;6.71;75.97
8294;BME280;4185;41.506;24.938;2023-03-21T02:36:21;93377.53;;;6.52;76.36
8294;BME280;4185;41.506;24.938;2023-03-21T02:38:54;93378.41;;;6.35;77.72
8294;BME280;4185;41.506;24.938;2023-03-21T02:41:29;93372.53;;;6.36;77.69
8294;BME280;4185;41.506;24.938;2023-03-21T02:44:04;93375.22;;;6.36;77.28
8294;BME280;4185;41.506;24.938;2023-03-21T02:46:37;93378.69;;;6.37;78.02
8294;BME280;4185;41.506;24.938;2023-03-21T02:49:10;93375.53;;;6.38;77.93
8294;BME280;4185;41.506;24.938;2023-03-21T02:51:39;93379.44;;;6.37;77.81
8294;BME280;4185;41.506;24.938;2023-03-21T02:54:11;93370.53;;;6.46;77.81
8294;BME280;4185;41.506;24.938;2023-03-21T02:56:40;93374.94;;;6.58;76.36
8294;BME280;4185;41.506;24.938;2023-03-21T02:59:08;93364.78;;;6.53;76.56
8294;BME280;4185;41.506;24.938;2023-03-21T03:01:35;93370.63;;;6.51;77.16
8294;BME280;4185;41.506;24.938;2023-03-21T03:04:02;93366.50;;;6.41;77.68
8294;BME280;4185;41.506;24.938;2023-03-21T03:06:37;93370.88;;;6.39;77.29
8294;BME280;4185;41.506;24.938;2023-03-21T03:09:18;93369.28;;;6.32;77.42
8294;BME280;4185;41.506;24.938;2023-03-21T03:11:58;93374.09;;;6.28;77.49
8294;BME280;4185;41.506;24.938;2023-03-21T03:14:38;93368.38;;;6.11;77.46
8294;BME280;4185;41.506;24.938;2023-03-21T03:17:17;93366.50;;;6.03;78.17
8294;BME280;4185;41.506;24.938;2023-03-21T03:19:55;93359.06;;;6.12;78.65
8294;BME280;4185;41.506;24.938;2023-03-21T03:22:31;93363.00;;;6.11;78.61
8294;BME280;4185;41.506;24.938;2023-03-21T03:25:04;93347.31;;;6.01;78.60
8294;BME280;4185;41.506;24.938;2023-03-21T03:27:36;93351.78;;;6.04;78.27
8294;BME280;4185;41.506;24.938;2023-03-21T03:30:06;93364.25;;;6.01;78.27
8294;BME280;4185;41.506;24.938;2023-03-21T03:32:37;93360.69;;;5.95;78.92
8294;BME280;4185;41.506;24.938;2023-03-21T03:35:10;93367.16;;;5.89;79.30
8294;BME280;4185;41.506;24.938;2023-03-21T03:37:39;93367.75;;;5.93;78.93
8294;BME280;4185;41.506;24.938;2023-03-21T03:40:12;93357.19;;;6.04;79.06
8294;BME280;4185;41.506;24.938;2023-03-21T03:42:46;93358.06;;;6.10;78.35
8294;BME280;4185;41.506;24.938;2023-03-21T03:45:14;93355.53;;;6.06;78.26
8294;BME280;4185;41.506;24.938;2023-03-21T03:47:45;93360.25;;;5.97;78.11
8294;BME280;4185;41.506;24.938;2023-03-21T03:50:19;93355.47;;;5.92;78.31
8294;BME280;4185;41.506;24.938;2023-03-21T03:52:51;93357.88;;;5.90;78.81
8294;BME280;4185;41.506;24.938;2023-03-21T03:55:21;93361.47;;;5.87;79.21
8294;BME280;4185;41.506;24.938;2023-03-21T03:57:51;93355.22;;;5.81;79.01
8294;BME280;4185;41.506;24.938;2023-03-21T04:00:19;93359.84;;;5.80;78.71
8294;BME280;4185;41.506;24.938;2023-03-21T04:02:46;93355.22;;;5.81;79.80
8294;BME280;4185;41.506;24.938;2023-03-21T04:05:13;93359.72;;;5.84;79.33
8294;BME280;4185;41.506;24.938;2023-03-21T04:07:39;93355.53;;;5.83;79.53
8294;BME280;4185;41.506;24.938;2023-03-21T04:10:07;93351.31;;;5.82;79.12
8294;BME280;4185;41.506;24.938;2023-03-21T04:12:35;93349.53;;;5.79;79.52
8294;BME280;4185;41.506;24.938;2023-03-21T04:15:02;93347.47;;;5.74;79.27
8294;BME280;4185;41.506;24.938;2023-03-21T04:17:29;93347.47;;;5.74;79.25
8294;BME280;4185;41.506;24.938;2023-03-21T04:19:57;93344.38;;;5.66;79.87
8294;BME280;4185;41.506;24.938;2023-03-21T04:22:24;93347.53;;;5.65;79.75
8294;BME280;4185;41.506;24.938;2023-03-21T04:24:51;93345.84;;;5.67;79.85
8294;BME280;4185;41.506;24.938;2023-03-21T04:27:18;93357.09;;;5.66;80.08
8294;BME280;4185;41.506;24.938;2023-03-21T04:29:46;93357.56;;;5.64;80.01
8294;BME280;4185;41.506;24.938;2023-03-21T04:32:13;93362.66;;;5.62;80.01
8294;BME280;4185;41.506;24.938;2023-03-21T04:34:42;93369.81;;;5.65;80.09
8294;BME280;4185;41.506;24.938;2023-03-21T04:37:15;93376.97;;;5.68;81.01
8294;BME280;4185;41.506;24.938;2023-03-21T04:39:41;93376.53;;;5.70;80.67
8294;BME280;4185;41.506;24.938;2023-03-21T04:42:10;93371.16;;;5.70;80.78
8294;BME280;4185;41.506;24.938;2023-03-21T04:44:38;93367.25;;;5.71;80.56
8294;BME280;4185;41.506;24.938;2023-03-21T04:47:06;93372.78;;;5.67;80.09
8294;BME280;4185;41.506;24.938;2023-03-21T04:49:33;93382.81;;;5.67;80.68
8294;BME280;4185;41.506;24.938;2023-03-21T04:52:00;93379.84;;;5.65;81.07
8294;BME280;4185;41.506;24.938;2023-03-21T04:54:27;93386.72;;;5.66;81.37
8294;BME280;4185;41.506;24.938;2023-03-21T04:56:54;93382.66;;;5.70;80.56
8294;BME280;4185;41.506;24.938;2023-03-21T04:59:20;93392.25;;;5.71;81.32
8294;BME280;4185;41.506;24.938;2023-03-21T05:01:47;93383.09;;;5.78;81.53
8294;BME280;4185;41.506;24.938;2023-03-21T05:04:15;93383.97;;;5.84;80.28
8294;BME280;4185;41.506;24.938;2023-03-21T05:06:43;93381.41;;;5.80;80.35
8294;BME280;4185;41.506;24.938;2023-03-21T05:09:10;93385.31;;;5.79;80.22
8294;BME280;4185;41.506;24.938;2023-03-21T05:11:39;93382.91;;;5.81;80.96
8294;BME280;4185;41.506;24.938;2023-03-21T05:14:07;93383.63;;;5.82;81.57
8294;BME280;4185;41.506;24.938;2023-03-21T05:16:35;93382.47;;;5.83;80.73
8294;BME280;4185;41.506;24.938;2023-03-21T05:19:12;93380.63;;;5.89;81.13
8294;BME280;4185;41.506;24.938;2023-03-21T05:21:41;93374.63;;;5.94;81.41
8294;BME280;4185;41.506;24.938;2023-03-21T05:24:11;93375.19;;;5.98;81.18
8294;BME280;4185;41.506;24.938;2023-03-21T05:26:41;93377.69;;;6.10;81.37
8294;BME280;4185;41.506;24.938;2023-03-21T05:29:09;93367.88;;;6.22;80.97
8294;BME280;4185;41.506;24.938;2023-03-21T05:31:35;93371.41;;;6.28;80.08
8294;BME280;4185;41.506;24.938;2023-03-21T05:34:02;93371.53;;;6.34;80.72
8294;BME280;4185;41.506;24.938;2023-03-21T05:36:29;93382.44;;;6.39;80.55
8294;BME280;4185;41.506;24.938;2023-03-21T05:38:59;93384.47;;;6.44;80.46
8294;BME280;4185;41.506;24.938;2023-03-21T05:41:26;93381.16;;;6.49;80.11
8294;BME280;4185;41.506;24.938;2023-03-21T05:43:53;93373.59;;;6.53;80.39
8294;BME280;4185;41.506;24.938;2023-03-21T05:46:20;93373.88;;;6.55;79.99
8294;BME280;4185;41.506;24.938;2023-03-21T05:48:46;93359.75;;;6.60;79.21
8294;BME280;4185;41.506;24.938;2023-03-21T05:51:13;93362.09;;;6.67;79.15
8294;BME280;4185;41.506;24.938;2023-03-21T05:53:40;93363.31;;;6.81;79.33
8294;BME280;4185;41.506;24.938;2023-03-21T05:56:09;93346.75;;;6.88;78.55
8294;BME280;4185;41.506;24.938;2023-03-21T05:58:35;93359.97;;;7.00;78.55
8294;BME280;4185;41.506;24.938;2023-03-21T06:01:02;93348.25;;;7.03;78.11
8294;BME280;4185;41.506;24.938;2023-03-21T06:03:29;93354.00;;;7.11;77.57
8294;BME280;4185;41.506;24.938;2023-03-21T06:05:56;93358.28;;;7.17;77.56
8294;BME280;4185;41.506;24.938;2023-03-21T06:08:23;93352.50;;;7.24;77.83
8294;BME280;4185;41.506;24.938;2023-03-21T06:10:50;93359.78;;;7.33;77.35
8294;BME280;4185;41.506;24.938;2023-03-21T06:13:18;93357.91;;;7.39;77.18
8294;BME280;4185;41.506;24.938;2023-03-21T06:15:45;93355.47;;;7.56;76.31
8294;BME280;4185;41.506;24.938;2023-03-21T06:18:11;93355.50;;;7.76;75.49
8294;BME280;4185;41.506;24.938;2023-03-21T06:20:38;93349.97;;;7.85;75.25
8294;BME280;4185;41.506;24.938;2023-03-21T06:23:05;93352.56;;;7.94;75.39
8294;BME280;4185;41.506;24.938;2023-03-21T06:25:32;93354.84;;;8.01;74.64
8294;BME280;4185;41.506;24.938;2023-03-21T06:27:58;93347.81;;;8.09;74.75
8294;BME280;4185;41.506;24.938;2023-03-21T06:30:27;93354.88;;;8.21;74.79
8294;BME280;4185;41.506;24.938;2023-03-21T06:32:53;93345.41;;;8.31;73.88
8294;BME280;4185;41.506;24.938;2023-03-21T06:35:20;93346.50;;;8.39;74.18
8294;BME280;4185;41.506;24.938;2023-03-21T06:37:47;93357.94;;;8.48;73.21
8294;BME280;4185;41.506;24.938;2023-03-21T06:40:16;93353.94;;;8.64;72.73
8294;BME280;4185;41.506;24.938;2023-03-21T06:42:43;93356.81;;;8.81;72.60
8294;BME280;4185;41.506;24.938;2023-03-21T06:45:10;93363.84;;;8.93;72.45
8294;BME280;4185;41.506;24.938;2023-03-21T06:47:38;93356.56;;;9.04;72.05
8294;BME280;4185;41.506;24.938;2023-03-21T06:50:05;93353.94;;;9.15;71.29
8294;BME280;4185;41.506;24.938;2023-03-21T06:52:32;93361.38;;;9.20;70.73
8294;BME280;4185;41.506;24.938;2023-03-21T06:54:59;93347.31;;;9.22;69.97
8294;BME280;4185;41.506;24.938;2023-03-21T06:57:26;93353.59;;;9.33;69.99
8294;BME280;4185;41.506;24.938;2023-03-21T06:59:53;93345.78;;;9.41;70.04
8294;BME280;4185;41.506;24.938;2023-03-21T07:02:20;93353.72;;;9.50;70.34
8294;BME280;4185;41.506;24.938;2023-03-21T07:04:48;93360.03;;;9.67;69.06
8294;BME280;4185;41.506;24.938;2023-03-21T07:07:15;93353.94;;;9.83;67.87
8294;BME280;4185;41.506;24.938;2023-03-21T07:09:42;93357.28;;;10.04;67.58
8294;BME280;4185;41.506;24.938;2023-03-21T07:12:08;93355.69;;;10.23;65.75
8294;BME280;4185;41.506;24.938;2023-03-21T07:14:35;93353.47;;;10.27;65.70
8294;BME280;4185;41.506;24.938;2023-03-21T07:17:02;93352.03;;;10.37;64.48
8294;BME280;4185;41.506;24.938;2023-03-21T07:19:29;93349.91;;;10.52;64.45
8294;BME280;4185;41.506;24.938;2023-03-21T07:21:57;93345.03;;;10.67;63.55
8294;BME280;4185;41.506;24.938;2023-03-21T07:24:24;93341.34;;;10.81;63.17
8294;BME280;4185;41.506;24.938;2023-03-21T07:26:51;93335.97;;;10.97;62.26
8294;BME280;4185;41.506;24.938;2023-03-21T07:29:18;93331.75;;;11.13;62.26
8294;BME280;4185;41.506;24.938;2023-03-21T07:31:47;93329.56;;;11.23;61.66
8294;BME280;4185;41.506;24.938;2023-03-21T07:34:14;93318.66;;;11.28;61.45
8294;BME280;4185;41.506;24.938;2023-03-21T07:36:42;93312.50;;;11.33;61.73
8294;BME280;4185;41.506;24.938;2023-03-21T07:39:10;93305.34;;;11.41;61.49
8294;BME280;4185;41.506;24.938;2023-03-21T07:41:37;93304.56;;;11.52;59.68
8294;BME280;4185;41.506;24.938;2023-03-21T07:44:04;93303.81;;;11.62;59.55
8294;BME280;4185;41.506;24.938;2023-03-21T07:46:30;93303.09;;;11.78;58.29
8294;BME280;4185;41.506;24.938;2023-03-21T07:48:57;93293.94;;;11.87;58.86
8294;BME280;4185;41.506;24.938;2023-03-21T07:51:24;93291.94;;;11.98;58.47
8294;BME280;4185;41.506;24.938;2023-03-21T07:53:51;93290.66;;;12.10;57.97
8294;BME280;4185;41.506;24.938;2023-03-21T07:56:19;93286.88;;;12.24;58.28
8294;BME280;4185;41.506;24.938;2023-03-21T07:58:46;93287.59;;;12.31;57.57
8294;BME280;4185;41.506;24.938;2023-03-21T08:01:13;93282.09;;;12.42;57.24
8294;BME280;4185;41.506;24.938;2023-03-21T08:03:40;93293.97;;;12.50;55.98
8294;BME280;4185;41.506;24.938;2023-03-21T08:06:08;93290.69;;;12.57;55.61
8294;BME280;4185;41.506;24.938;2023-03-21T08:08:35;93286.94;;;12.65;54.62
8294;BME280;4185;41.506;24.938;2023-03-21T08:11:03;93274.78;;;12.72;52.96
8294;BME280;4185;41.506;24.938;2023-03-21T08:13:31;93278.69;;;12.82;52.23
8294;BME280;4185;41.506;24.938;2023-03-21T08:15:59;93283.81;;;12.91;51.15
8294;BME280;4185;41.506;24.938;2023-03-21T08:18:25;93281.56;;;13.00;50.34
8294;BME280;4185;41.506;24.938;2023-03-21T08:20:53;93281.00;;;13.07;49.84
8294;BME280;4185;41.506;24.938;2023-03-21T08:23:20;93273.28;;;13.17;50.48
8294;BME280;4185;41.506;24.938;2023-03-21T08:25:50;93274.16;;;13.30;49.90
8294;BME280;4185;41.506;24.938;2023-03-21T08:28:17;93270.88;;;13.37;49.81
8294;BME280;4185;41.506;24.938;2023-03-21T08:30:46;93272.56;;;13.46;49.35
8294;BME280;4185;41.506;24.938;2023-03-21T08:33:14;93269.25;;;13.53;48.94
8294;BME280;4185;41.506;24.938;2023-03-21T08:35:41;93269.66;;;13.63;48.26
8294;BME280;4185;41.506;24.938;2023-03-21T08:38:08;93277.50;;;13.72;47.52
8294;BME280;4185;41.506;24.938;2023-03-21T08:40:36;93273.97;;;13.77;47.79
8294;BME280;4185;41.506;24.938;2023-03-21T08:43:03;93271.44;;;13.84;47.83
8294;BME280;4185;41.506;24.938;2023-03-21T08:45:30;93266.22;;;13.86;47.48
8294;BME280;4185;41.506;24.938;2023-03-21T08:47:58;93268.91;;;13.92;47.86
8294;BME280;4185;41.506;24.938;2023-03-21T08:50:26;93271.31;;;13.95;47.81
8294;BME280;4185;41.506;24.938;2023-03-21T08:52:55;93271.03;;;13.99;48.05
8294;BME280;4185;41.506;24.938;2023-03-21T08:55:23;93266.78;;;14.03;48.21
8294;BME280;4185;41.506;24.938;2023-03-21T08:57:52;93275.41;;;14.07;48.52
8294;BME280;4185;41.506;24.938;2023-03-21T09:00:20;93272.91;;;14.09;48.44
8294;BME280;4185;41.506;24.938;2023-03-21T09:02:48;93263.47;;;14.10;48.36
8294;BME280;4185;41.506;24.938;2023-03-21T09:05:20;93267.91;;;14.13;48.36
8294;BME280;4185;41.506;24.938;2023-03-21T09:07:48;93266.88;;;14.16;48.32
8294;BME280;4185;41.506;24.938;2023-03-21T09:10:17;93249.69;;;14.21;47.90
8294;BME280;4185;41.506;24.938;2023-03-21T09:12:44;93258.09;;;14.29;47.78
8294;BME280;4185;41.506;24.938;2023-03-21T09:15:11;93254.25;;;14.37;47.30
8294;BME280;4185;41.506;24.938;2023-03-21T09:17:39;93257.34;;;14.47;46.92
8294;BME280;4185;41.506;24.938;2023-03-21T09:20:08;93253.28;;;14.53;46.72
8294;BME280;4185;41.506;24.938;2023-03-21T09:22:37;93247.25;;;14.60;46.81
8294;BME280;4185;41.506;24.938;2023-03-21T09:25:05;93241.41;;;14.70;46.22
8294;BME280;4185;41.506;24.938;2023-03-21T09:27:35;93244.28;;;14.77;46.34
8294;BME280;4185;41.506;24.938;2023-03-21T09:30:03;93252.81;;;14.87;45.84
8294;BME280;4185;41.506;24.938;2023-03-21T09:32:31;93247.00;;;14.96;45.60
8294;BME280;4185;41.506;24.938;2023-03-21T09:34:58;93252.00;;;15.10;45.99
8294;BME280;4185;41.506;24.938;2023-03-21T09:37:25;93255.09;;;15.20;45.52
8294;BME280;4185;41.506;24.938;2023-03-21T09:39:53;93237.47;;;15.34;43.48
8294;BME280;4185;41.506;24.938;2023-03-21T09:42:32;93235.84;;;15.57;43.22
8294;BME280;4185;41.506;24.938;2023-03-21T09:45:07;93239.97;;;15.76;42.16
8294;BME280;4185;41.506;24.938;2023-03-21T09:47:40;93234.84;;;15.86;43.02
8294;BME280;4185;41.506;24.938;2023-03-21T09:50:19;93236.31;;;16.00;42.47
8294;BME280;4185;41.506;24.938;2023-03-21T09:52:55;93230.63;;;16.11;42.18
8294;BME280;4185;41.506;24.938;2023-03-21T09:55:25;93240.09;;;16.36;42.01
8294;BME280;4185;41.506;24.938;2023-03-21T09:58:02;93236.94;;;16.58;37.47
8294;BME280;4185;41.506;24.938;2023-03-21T10:00:34;93240.03;;;16.88;37.90
8294;BME280;4185;41.506;24.938;2023-03-21T10:03:03;93236.59;;;17.08;37.62
8294;BME280;4185;41.506;24.938;2023-03-21T10:05:34;93220.25;;;17.24;38.07
8294;BME280;4185;41.506;24.938;2023-03-21T10:08:07;93224.41;;;17.38;36.15
8294;BME280;4185;41.506;24.938;2023-03-21T10:10:40;93221.00;;;17.45;36.79
8294;BME280;4185;41.506;24.938;2023-03-21T10:13:13;93216.69;;;17.49;33.43
8294;BME280;4185;41.506;24.938;2023-03-21T10:15:42;93225.00;;;17.57;31.74
8294;BME280;4185;41.506;24.938;2023-03-21T10:18:12;93217.53;;;17.65;31.20
8294;BME280;4185;41.506;24.938;2023-03-21T10:20:43;93210.09;;;17.73;32.73
8294;BME280;4185;41.506;24.938;2023-03-21T10:23:14;93210.69;;;17.79;33.00
8294;BME280;4185;41.506;24.938;2023-03-21T10:25:45;93200.47;;;17.87;32.34
8294;BME280;4185;41.506;24.938;2023-03-21T10:28:15;93213.34;;;17.92;32.46
8294;BME280;4185;41.506;24.938;2023-03-21T10:30:44;93202.34;;;17.92;32.80
8294;BME280;4185;41.506;24.938;2023-03-21T10:33:13;93194.75;;;18.05;32.73
8294;BME280;4185;41.506;24.938;2023-03-21T10:35:44;93186.16;;;18.09;32.83
8294;BME280;4185;41.506;24.938;2023-03-21T10:38:14;93192.84;;;18.28;32.48
8294;BME280;4185;41.506;24.938;2023-03-21T10:40:43;93189.19;;;18.34;31.95
8294;BME280;4185;41.506;24.938;2023-03-21T10:43:19;93183.16;;;18.35;31.86
8294;BME280;4185;41.506;24.938;2023-03-21T10:45:55;93193.28;;;18.40;31.96
8294;BME280;4185;41.506;24.938;2023-03-21T10:48:23;93181.78;;;18.42;32.10
8294;BME280;4185;41.506;24.938;2023-03-21T10:50:52;93180.69;;;18.45;32.58
8294;BME280;4185;41.506;24.938;2023-03-21T10:53:22;93183.50;;;18.67;32.68
8294;BME280;4185;41.506;24.938;2023-03-21T10:55:55;93176.97;;;18.85;31.91
8294;BME280;4185;41.506;24.938;2023-03-21T10:58:25;93184.84;;;18.81;31.71
8294;BME280;4185;41.506;24.938;2023-03-21T11:00:55;93168.13;;;18.79;31.79
8294;BME280;4185;41.506;24.938;2023-03-21T11:03:26;93176.41;;;18.87;31.88
8294;BME280;4185;41.506;24.938;2023-03-21T11:06:03;93170.31;;;18.81;32.18
8294;BME280;4185;41.506;24.938;2023-03-21T11:08:36;93168.88;;;18.80;32.48
8294;BME280;4185;41.506;24.938;2023-03-21T11:11:07;93163.88;;;18.71;32.68
8294;BME280;4185;41.506;24.938;2023-03-21T11:13:37;93161.13;;;18.63;32.77
8294;BME280;4185;41.506;24.938;2023-03-21T11:16:07;93151.56;;;18.64;32.83
8294;BME280;4185;41.506;24.938;2023-03-21T11:18:39;93154.38;;;18.79;32.86
8294;BME280;4185;41.506;24.938;2023-03-21T11:21:09;93137.31;;;18.81;32.93
8294;BME280;4185;41.506;24.938;2023-03-21T11:23:39;93137.31;;;18.81;32.52
8294;BME280;4185;41.506;24.938;2023-03-21T11:26:14;93135.50;;;18.83;32.75
8294;BME280;4185;41.506;24.938;2023-03-21T11:28:42;93140.09;;;18.88;32.42
8294;BME280;4185;41.506;24.938;2023-03-21T11:31:10;93127.97;;;18.91;32.65
8294;BME280;4185;41.506;24.938;2023-03-21T11:33:39;93120.31;;;19.12;33.05
8294;BME280;4185;41.506;24.938;2023-03-21T11:36:26;93126.75;;;19.45;32.81
8294;BME280;4185;41.506;24.938;2023-03-21T11:39:12;93115.94;;;19.55;32.88
8294;BME280;4185;41.506;24.938;2023-03-21T11:41:41;93117.19;;;19.54;33.21
8294;BME280;4185;41.506;24.938;2023-03-21T11:44:25;93119.22;;;19.46;33.64
8294;BME280;4185;41.506;24.938;2023-03-21T11:46:52;93113.91;;;19.32;33.40
8294;BME280;4185;41.506;24.938;2023-03-21T11:49:20;93112.41;;;19.24;33.86
8294;BME280;4185;41.506;24.938;2023-03-21T11:51:57;93117.19;;;19.23;33.98
8294;BME280;4185;41.506;24.938;2023-03-21T11:54:35;93116.28;;;19.21;34.46
8294;BME280;4185;41.506;24.938;2023-03-21T11:57:13;93113.69;;;19.15;34.25
8294;BME280;4185;41.506;24.938;2023-03-21T11:59:47;93099.19;;;19.07;34.60
8294;BME280;4185;41.506;24.938;2023-03-21T12:02:38;93107.44;;;18.85;34.95
8294;BME280;4185;41.506;24.938;2023-03-21T12:05:17;93101.16;;;18.62;35.58
8294;BME280;4185;41.506;24.938;2023-03-21T12:07:51;93102.41;;;18.61;36.10
8294;BME280;4185;41.506;24.938;2023-03-21T12:10:29;93100.50;;;18.33;36.57
8294;BME280;4185;41.506;24.938;2023-03-21T12:13:09;93100.09;;;18.29;37.12
8294;BME280;4185;41.506;24.938;2023-03-21T12:15:43;93102.50;;;18.33;36.95
8294;BME280;4185;41.506;24.938;2023-03-21T12:18:36;93101.28;;;18.41;36.83
8294;BME280;4185;41.506;24.938;2023-03-21T12:21:11;93102.69;;;18.35;37.13
8294;BME280;4185;41.506;24.938;2023-03-21T12:23:57;93102.50;;;18.33;37.31
8294;BME280;4185;41.506;24.938;2023-03-21T12:26:28;93095.41;;;18.45;37.15
8294;BME280;4185;41.506;24.938;2023-03-21T12:29:12;93092.34;;;18.63;37.29
8294;BME280;4185;41.506;24.938;2023-03-21T12:31:51;93090.00;;;18.82;37.18
8294;BME280;4185;41.506;24.938;2023-03-21T12:34:43;93096.97;;;18.83;36.93
8294;BME280;4185;41.506;24.938;2023-03-21T12:37:20;93089.63;;;18.93;36.83
8294;BME280;4185;41.506;24.938;2023-03-21T12:39:53;93087.44;;;19.07;36.53
8294;BME280;4185;41.506;24.938;2023-03-21T12:42:42;93078.66;;;19.31;36.25
8294;BME280;4185;41.506;24.938;2023-03-21T12:45:17;93083.75;;;19.65;35.89
8294;BME280;4185;41.506;24.938;2023-03-21T12:47:50;93076.16;;;19.88;35.53
8294;BME280;4185;41.506;24.938;2023-03-21T12:50:19;93070.41;;;20.01;35.52
8294;BME280;4185;41.506;24.938;2023-03-21T12:52:51;93075.59;;;19.97;35.08
8294;BME280;4185;41.506;24.938;2023-03-21T12:55:21;93073.22;;;19.86;35.09
8294;BME280;4185;41.506;24.938;2023-03-21T12:57:51;93071.28;;;19.56;35.14
8294;BME280;4185;41.506;24.938;2023-03-21T13:00:24;93070.53;;;19.56;35.27
8294;BME280;4185;41.506;24.938;2023-03-21T13:02:54;93074.97;;;19.43;35.19
8294;BME280;4185;41.506;24.938;2023-03-21T13:05:26;93058.44;;;19.51;35.18
8294;BME280;4185;41.506;24.938;2023-03-21T13:07:58;93064.66;;;19.59;35.03
8294;BME280;4185;41.506;24.938;2023-03-21T13:10:26;93059.72;;;19.35;35.22
8294;BME280;4185;41.506;24.938;2023-03-21T13:13:02;93067.28;;;19.19;35.54
8294;BME280;4185;41.506;24.938;2023-03-21T13:15:46;93066.50;;;18.96;36.20
8294;BME280;4185;41.506;24.938;2023-03-21T13:18:24;93063.75;;;18.96;36.61
8294;BME280;4185;41.506;24.938;2023-03-21T13:20:55;93056.63;;;19.01;36.67
8294;BME280;4185;41.506;24.938;2023-03-21T13:23:24;93059.19;;;18.99;36.82
8294;BME280;4185;41.506;24.938;2023-03-21T13:25:53;93061.00;;;18.81;37.26
8294;BME280;4185;41.506;24.938;2023-03-21T13:28:24;93044.09;;;18.62;37.69
8294;BME280;4185;41.506;24.938;2023-03-21T13:31:17;93051.44;;;18.67;37.92
8294;BME280;4185;41.506;24.938;2023-03-21T13:33:46;93044.84;;;18.63;38.70
8294;BME280;4185;41.506;24.938;2023-03-21T13:36:15;93036.03;;;18.64;38.60
8294;BME280;4185;41.506;24.938;2023-03-21T13:38:49;93040.81;;;18.71;38.51
8294;BME280;4185;41.506;24.938;2023-03-21T13:41:18;93041.91;;;18.68;38.22